Time;durP1;ratioP1;P1;durP2;ratioP2;P2;SDS_P1;SDS_P2;PMS_P1;PMS_P2;Temp;Humidity;BMP_temperature;BMP_pressure;BME280_temperature;BME280_humidity;BME280_pressure;Samples;Min_cycle;Max_cycle;Signal;HPM_P1;HPM_P2
2022/12/25 00:01:53;;;;;;;34.40;9.63;;;8.10;99.90;;;;;;5057946;28;20058;-60
2022/12/25 00:04:19;;;;;;;25.08;9.73;;;8.20;99.90;;;;;;5052230;28;20147;-60
2022/12/25 00:06:45;;;;;;;22.70;8.90;;;8.20;99.90;;;;;;5075989;28;20070;-60
2022/12/25 00:09:10;;;;;;;25.30;10.38;;;8.20;99.90;;;;;;5056552;28;20037;-60
2022/12/25 00:11:36;;;;;;;33.22;9.80;;;8.20;99.90;;;;;;5059668;28;20674;-60
2022/12/25 00:14:02;;;;;;;26.35;9.07;;;8.20;99.90;;;;;;5064873;28;20062;-60
2022/12/25 00:16:28;;;;;;;27.48;8.93;;;8.20;99.90;;;;;;5062431;28;20089;-59
2022/12/25 00:18:55;;;;;;;23.25;9.30;;;8.30;99.90;;;;;;5054000;28;20128;-59
2022/12/25 00:21:21;;;;;;;22.95;9.40;;;8.30;99.90;;;;;;5060990;28;20033;-60
2022/12/25 00:23:47;;;;;;;26.75;9.10;;;8.40;99.90;;;;;;5059526;28;20033;-59
2022/12/25 00:26:15;;;;;;;25.00;9.27;;;8.40;99.90;;;;;;5057569;28;20056;-60
2022/12/25 00:28:41;;;;;;;28.83;9.32;;;8.40;99.90;;;;;;5061131;28;20035;-59
2022/12/25 00:31:14;;;;;;;29.67;9.30;;;8.50;99.90;;;;;;5055998;28;20033;-59
2022/12/25 00:33:41;;;;;;;26.10;9.93;;;8.40;99.90;;;;;;5053603;28;20029;-59
2022/12/25 00:36:08;;;;;;;24.33;9.05;;;8.50;99.90;;;;;;5053941;28;20449;-60
2022/12/25 00:38:35;;;;;;;27.60;8.82;;;8.40;99.90;;;;;;5061081;28;20131;-60
2022/12/25 00:41:12;;;;;;;26.40;8.93;;;8.40;99.90;;;;;;5056131;28;20036;-59
2022/12/25 00:43:40;;;;;;;21.05;8.23;;;8.40;99.90;;;;;;5057058;28;20033;-59
2022/12/25 00:46:06;;;;;;;21.45;8.32;;;8.40;99.90;;;;;;5060271;28;20365;-59
2022/12/25 00:48:32;;;;;;;22.48;8.18;;;8.50;99.90;;;;;;5063417;28;20036;-59
2022/12/25 00:51:05;;;;;;;24.77;8.02;;;8.50;99.90;;;;;;5061780;28;20028;-58
2022/12/25 00:53:31;;;;;;;29.25;8.05;;;8.50;99.90;;;;;;5061927;28;20376;-60
2022/12/25 00:56:03;;;;;;;24.92;8.73;;;8.40;99.90;;;;;;5061409;28;20576;-59
2022/12/25 00:58:31;;;;;;;28.67;8.80;;;8.50;99.90;;;;;;5059191;28;20033;-59
2022/12/25 01:00:57;;;;;;;25.00;8.57;;;8.60;99.90;;;;;;5060492;28;20395;-60
2022/12/25 01:03:23;;;;;;;20.77;7.82;;;8.50;99.90;;;;;;5047330;28;20472;-60
2022/12/25 01:06:01;;;;;;;23.75;8.02;;;8.50;99.90;;;;;;5057527;28;20444;-59
2022/12/25 01:08:27;;;;;;;20.63;7.35;;;8.50;99.90;;;;;;5058654;28;20428;-59
2022/12/25 01:10:58;;;;;;;18.80;7.60;;;8.50;99.90;;;;;;5071573;28;20032;-60
2022/12/25 01:13:24;;;;;;;25.85;6.93;;;8.60;99.90;;;;;;5056413;28;20476;-59
2022/12/25 01:15:51;;;;;;;22.58;7.80;;;8.60;99.90;;;;;;5058258;28;20044;-60
2022/12/25 01:18:18;;;;;;;21.92;7.68;;;8.60;99.90;;;;;;5054097;28;20381;-60
2022/12/25 01:20:44;;;;;;;19.23;6.93;;;8.60;99.90;;;;;;5060475;28;20105;-60
2022/12/25 01:23:09;;;;;;;20.75;7.88;;;8.70;99.90;;;;;;5059229;28;20044;-60
2022/12/25 01:25:35;;;;;;;23.48;7.70;;;8.60;99.90;;;;;;5064007;28;20036;-60
2022/12/25 01:28:01;;;;;;;19.45;7.88;;;8.70;99.90;;;;;;5054395;28;20025;-60
2022/12/25 01:30:26;;;;;;;19.67;7.80;;;8.70;99.90;;;;;;5053376;28;20081;-60
2022/12/25 01:32:53;;;;;;;24.58;7.18;;;8.70;99.90;;;;;;5062551;28;20098;-60
2022/12/25 01:35:18;;;;;;;21.27;7.30;;;8.60;99.90;;;;;;5064170;28;20033;-60
2022/12/25 01:37:44;;;;;;;20.33;7.85;;;8.70;99.90;;;;;;5065822;28;20033;-60
2022/12/25 01:40:10;;;;;;;20.83;8.07;;;8.70;99.90;;;;;;5053930;28;20069;-59
2022/12/25 01:42:36;;;;;;;19.55;7.68;;;8.70;99.90;;;;;;5062136;28;20023;-60
2022/12/25 01:45:29;;;;;;;20.98;7.45;;;8.70;99.90;;;;;;5058229;28;20029;-60
2022/12/25 01:47:55;;;;;;;21.20;7.75;;;8.70;99.90;;;;;;5059763;28;20075;-60
2022/12/25 01:50:21;;;;;;;21.00;7.43;;;8.70;99.90;;;;;;5059795;28;20044;-61
2022/12/25 01:52:48;;;;;;;22.02;7.75;;;8.70;99.90;;;;;;5055048;28;20044;-59
2022/12/25 01:55:14;;;;;;;18.73;7.88;;;8.80;99.90;;;;;;5056051;28;20052;-59
2022/12/25 01:57:41;;;;;;;23.52;7.22;;;8.70;99.90;;;;;;5068218;28;20511;-60
2022/12/25 02:00:10;;;;;;;19.30;7.50;;;8.80;99.90;;;;;;5063896;28;20446;-60
2022/12/25 02:02:37;;;;;;;18.20;7.70;;;8.80;99.90;;;;;;5063632;28;20043;-60
2022/12/25 02:05:28;;;;;;;25.13;8.35;;;8.90;99.90;;;;;;5058671;28;20503;-59
2022/12/25 02:07:56;;;;;;;19.42;7.57;;;8.90;99.90;;;;;;5072802;28;20779;-60
2022/12/25 02:10:22;;;;;;;16.85;6.90;;;8.90;99.90;;;;;;5060171;28;20576;-60
2022/12/25 02:12:48;;;;;;;18.77;7.22;;;8.90;99.90;;;;;;5057980;28;20029;-60
2022/12/25 02:15:17;;;;;;;17.77;6.70;;;8.90;99.90;;;;;;5058074;28;20039;-59
2022/12/25 02:17:51;;;;;;;20.88;7.63;;;9.00;99.90;;;;;;5062227;28;20044;-60
2022/12/25 02:20:35;;;;;;;22.30;7.57;;;9.00;99.90;;;;;;5061297;28;20419;-60
2022/12/25 02:23:22;;;;;;;20.63;7.18;;;9.10;99.90;;;;;;5062873;28;20032;-61
2022/12/25 02:26:25;;;;;;;20.35;7.07;;;9.00;99.90;;;;;;5058805;28;20025;-60
2022/12/25 02:29:02;;;;;;;21.13;6.70;;;9.00;99.90;;;;;;5054614;28;20079;-61
2022/12/25 02:31:49;;;;;;;16.40;7.18;;;9.00;99.90;;;;;;5067430;28;20067;-59
2022/12/25 02:34:16;;;;;;;15.35;6.80;;;9.00;99.90;;;;;;5056445;28;20042;-60
2022/12/25 02:37:05;;;;;;;22.67;7.82;;;9.20;99.90;;;;;;5060968;28;20484;-59
2022/12/25 02:39:58;;;;;;;19.55;7.53;;;9.10;99.90;;;;;;5060369;28;20028;-60
2022/12/25 03:11:53;;;;;;;18.30;7.18;;;9.10;99.90;;;;;;5060319;28;20389;-60
2022/12/25 03:17:03;;;;;;;14.02;6.18;;;9.10;99.90;;;;;;5063400;28;20062;-61
2022/12/25 03:27:55;;;;;;;17.42;5.90;;;9.10;99.90;;;;;;5064675;28;20051;-60
2022/12/25 03:33:10;;;;;;;17.27;6.57;;;9.10;99.90;;;;;;5056182;28;20105;-61
2022/12/25 03:36:04;;;;;;;13.98;6.05;;;9.10;99.90;;;;;;5059974;28;20539;-60
2022/12/25 04:36:55;;;;;;;14.73;6.45;;;9.20;99.90;;;;;;5059908;28;20063;-60
2022/12/25 04:39:20;;;;;;;14.32;6.20;;;9.20;99.90;;;;;;5051678;28;20064;-60
2022/12/25 04:41:46;;;;;;;13.18;6.40;;;9.10;99.90;;;;;;5064756;28;20037;-60
2022/12/25 04:44:12;;;;;;;12.88;6.03;;;9.00;99.90;;;;;;5057605;28;20033;-58
2022/12/25 04:46:37;;;;;;;15.65;6.30;;;9.00;99.90;;;;;;5065079;28;20496;-58
2022/12/25 04:49:03;;;;;;;14.35;6.05;;;9.00;99.90;;;;;;5060626;28;20116;-60
2022/12/25 04:51:28;;;;;;;17.20;5.93;;;9.00;99.90;;;;;;5054127;28;20037;-59
2022/12/25 04:53:54;;;;;;;16.48;6.43;;;9.00;99.90;;;;;;5063516;28;20101;-58
2022/12/25 04:56:20;;;;;;;15.60;6.80;;;9.00;99.90;;;;;;5061716;28;20057;-59
2022/12/25 04:58:46;;;;;;;15.23;6.72;;;9.00;99.90;;;;;;5062514;28;20460;-60
2022/12/25 05:01:13;;;;;;;20.02;6.47;;;9.00;99.90;;;;;;5063913;28;20041;-60
2022/12/25 05:03:39;;;;;;;18.50;7.10;;;9.20;99.90;;;;;;5062645;28;20059;-58
2022/12/25 05:06:05;;;;;;;14.00;6.38;;;9.20;99.90;;;;;;5061036;28;20075;-60
2022/12/25 05:08:32;;;;;;;20.10;6.75;;;9.30;99.90;;;;;;5046809;28;20052;-59
2022/12/25 05:10:58;;;;;;;12.85;6.78;;;9.30;99.90;;;;;;5065428;28;20396;-58
2022/12/25 05:13:24;;;;;;;15.27;6.88;;;9.30;99.90;;;;;;5062035;28;20029;-59
2022/12/25 05:15:50;;;;;;;16.80;6.30;;;9.30;99.90;;;;;;5062030;28;20086;-59
2022/12/25 05:18:15;;;;;;;14.32;5.80;;;9.30;99.90;;;;;;5053831;28;20037;-59
2022/12/25 05:20:41;;;;;;;13.15;6.55;;;9.30;99.90;;;;;;5064600;28;20059;-58
2022/12/25 05:23:09;;;;;;;12.50;6.15;;;9.30;99.90;;;;;;5057638;28;20028;-60
2022/12/25 05:25:38;;;;;;;20.98;6.93;;;9.40;99.90;;;;;;5063001;28;20487;-60
2022/12/25 05:28:04;;;;;;;17.83;6.05;;;9.40;99.90;;;;;;5064725;28;20046;-59
2022/12/25 05:30:29;;;;;;;14.50;6.07;;;9.40;99.90;;;;;;5065970;28;20538;-58
2022/12/25 05:32:55;;;;;;;16.88;5.93;;;9.40;99.90;;;;;;5062174;28;20499;-60
2022/12/25 05:35:20;;;;;;;13.75;6.30;;;9.40;99.90;;;;;;5058801;28;20512;-59
2022/12/25 05:37:46;;;;;;;14.07;5.75;;;9.50;99.90;;;;;;5066261;28;20472;-60
2022/12/25 05:40:11;;;;;;;15.15;6.00;;;9.50;99.90;;;;;;5059343;28;20523;-60
2022/12/25 05:42:37;;;;;;;12.57;6.10;;;9.50;99.90;;;;;;5062733;28;20033;-59
2022/12/25 05:45:03;;;;;;;15.15;6.40;;;9.50;99.90;;;;;;5056005;28;20064;-60
2022/12/25 05:47:28;;;;;;;13.52;6.00;;;9.60;99.90;;;;;;5061543;28;20055;-61
2022/12/25 05:49:54;;;;;;;12.45;5.80;;;9.60;99.90;;;;;;5058175;28;20878;-59
2022/12/25 05:52:19;;;;;;;13.45;5.32;;;9.50;99.90;;;;;;5055493;28;20484;-59
2022/12/25 05:54:45;;;;;;;11.98;5.93;;;9.50;99.90;;;;;;5060755;28;20476;-59
2022/12/25 05:57:10;;;;;;;16.83;6.07;;;9.40;99.90;;;;;;5059450;28;20384;-59
2022/12/25 05:59:36;;;;;;;15.98;6.30;;;9.50;99.90;;;;;;5063255;28;20461;-60
2022/12/25 06:02:01;;;;;;;14.75;5.88;;;9.40;99.90;;;;;;5056236;28;20385;-60
2022/12/25 06:04:27;;;;;;;13.05;6.03;;;9.40;99.90;;;;;;5056770;28;20377;-59
2022/12/25 06:06:53;;;;;;;12.73;5.82;;;9.50;99.90;;;;;;5058333;28;20783;-60
2022/12/25 06:09:18;;;;;;;10.85;5.32;;;9.30;99.90;;;;;;5053795;28;20134;-59
2022/12/25 06:11:44;;;;;;;12.68;5.22;;;9.30;99.90;;;;;;5058853;28;20033;-59
2022/12/25 06:14:12;;;;;;;15.38;5.40;;;9.30;99.90;;;;;;5059084;28;20049;-59
2022/12/25 06:16:37;;;;;;;17.55;6.22;;;9.30;99.90;;;;;;5062230;28;20032;-59
2022/12/25 06:19:03;;;;;;;16.85;6.20;;;9.30;99.90;;;;;;5059163;28;20047;-59
2022/12/25 06:21:31;;;;;;;12.13;5.70;;;9.40;99.90;;;;;;5057326;28;20037;-60
2022/12/25 06:23:58;;;;;;;12.63;5.07;;;9.40;99.90;;;;;;5059014;28;20044;-59
2022/12/25 06:26:24;;;;;;;14.35;5.57;;;9.40;99.90;;;;;;5057348;28;20047;-59
2022/12/25 06:28:51;;;;;;;14.15;5.07;;;9.30;99.90;;;;;;5056272;28;20033;-59
2022/12/25 06:31:19;;;;;;;19.63;5.55;;;9.40;99.90;;;;;;5056421;28;20354;-59
2022/12/25 06:33:45;;;;;;;15.98;5.90;;;9.30;99.90;;;;;;5058706;28;20111;-59
2022/12/25 06:36:22;;;;;;;13.30;5.30;;;9.40;99.90;;;;;;5055984;28;20029;-59
2022/12/25 06:38:48;;;;;;;13.40;5.20;;;9.40;99.90;;;;;;5061223;28;20035;-59
2022/12/25 06:41:25;;;;;;;16.65;5.50;;;9.40;99.90;;;;;;5055330;28;20497;-58
2022/12/25 06:43:56;;;;;;;17.00;5.72;;;9.40;99.90;;;;;;5060866;28;20076;-59
2022/12/25 06:46:24;;;;;;;12.95;5.78;;;9.40;99.90;;;;;;5064817;28;20047;-59
2022/12/25 06:48:50;;;;;;;14.73;5.45;;;9.50;99.90;;;;;;5060808;28;20056;-60
2022/12/25 06:51:24;;;;;;;14.77;5.15;;;9.50;99.90;;;;;;5053240;28;20667;-59
2022/12/25 06:53:51;;;;;;;12.50;5.40;;;9.50;99.90;;;;;;5064359;28;20532;-60
2022/12/25 06:56:19;;;;;;;14.73;5.63;;;9.50;99.90;;;;;;5062629;28;20055;-59
2022/12/25 06:58:48;;;;;;;14.50;4.95;;;9.50;99.90;;;;;;5057345;28;20120;-59
2022/12/25 07:01:22;;;;;;;11.45;4.47;;;9.60;99.90;;;;;;5059296;28;20551;-59
2022/12/25 07:03:50;;;;;;;15.13;5.43;;;9.60;99.90;;;;;;5063010;28;20029;-60
2022/12/25 07:06:16;;;;;;;12.35;4.82;;;9.70;99.90;;;;;;5055415;28;20029;-59
2022/12/25 07:08:41;;;;;;;13.63;5.35;;;9.60;99.90;;;;;;5059184;28;20079;-60
2022/12/25 07:11:07;;;;;;;17.88;4.82;;;9.70;99.90;;;;;;5055572;28;20055;-60
2022/12/25 07:13:33;;;;;;;13.02;4.85;;;9.70;99.90;;;;;;5064654;28;20649;-60
2022/12/25 07:16:01;;;;;;;14.40;4.38;;;9.60;99.90;;;;;;5064988;28;20047;-59
2022/12/25 07:18:28;;;;;;;11.02;4.60;;;9.60;99.90;;;;;;5060030;28;20040;-59
2022/12/25 07:20:54;;;;;;;12.55;4.90;;;9.60;99.90;;;;;;5060335;28;20033;-60
2022/12/25 07:23:21;;;;;;;12.73;4.85;;;9.70;99.90;;;;;;5064202;28;20051;-59
2022/12/25 07:25:57;;;;;;;14.25;4.82;;;9.80;99.90;;;;;;5062763;28;20559;-59
2022/12/25 07:28:23;;;;;;;11.48;4.60;;;9.80;99.90;;;;;;5067090;28;20031;-59
2022/12/25 07:30:49;;;;;;;13.13;4.55;;;9.80;99.90;;;;;;5058819;28;20041;-59
2022/12/25 07:33:15;;;;;;;12.48;4.90;;;9.70;99.90;;;;;;5065033;28;20035;-60
2022/12/25 07:35:41;;;;;;;9.98;4.53;;;9.70;99.90;;;;;;5069589;28;20039;-59
2022/12/25 07:38:06;;;;;;;11.88;4.25;;;9.80;99.90;;;;;;5065154;28;20032;-59
2022/12/25 07:40:32;;;;;;;11.43;4.28;;;9.80;99.90;;;;;;5065819;28;20104;-59
2022/12/25 07:42:57;;;;;;;13.80;4.53;;;9.80;99.90;;;;;;5065132;28;20037;-59
2022/12/25 07:45:23;;;;;;;16.15;4.60;;;9.90;99.90;;;;;;5066607;28;20036;-60
2022/12/25 07:47:48;;;;;;;11.27;4.35;;;9.90;99.90;;;;;;5067657;28;20033;-60
2022/12/25 07:50:14;;;;;;;13.30;4.32;;;9.90;99.90;;;;;;5053373;28;20053;-59
2022/12/25 07:52:39;;;;;;;12.98;4.15;;;9.80;99.90;;;;;;5057934;28;20682;-59
2022/12/25 07:55:05;;;;;;;12.48;3.80;;;9.80;99.90;;;;;;5059412;28;20040;-59
2022/12/25 07:57:31;;;;;;;11.25;3.40;;;9.70;99.90;;;;;;5058949;28;20063;-59
2022/12/25 07:59:57;;;;;;;11.20;3.70;;;9.70;99.90;;;;;;5056812;28;20032;-58
2022/12/25 08:02:27;;;;;;;12.48;3.85;;;9.70;99.90;;;;;;5060265;28;20032;-59
2022/12/25 08:04:54;;;;;;;9.82;3.50;;;9.70;99.90;;;;;;5062214;28;20029;-59
2022/12/25 08:07:20;;;;;;;13.60;3.75;;;9.70;99.90;;;;;;5062608;28;20094;-60
2022/12/25 08:09:45;;;;;;;9.43;3.22;;;9.70;99.90;;;;;;5060608;28;20036;-60
2022/12/25 08:12:11;;;;;;;13.90;3.65;;;9.70;99.90;;;;;;5057307;28;20037;-60
2022/12/25 08:14:36;;;;;;;13.13;3.88;;;9.70;99.90;;;;;;5063267;28;20078;-59
2022/12/25 08:17:02;;;;;;;9.73;3.63;;;9.70;99.90;;;;;;5059964;28;20377;-61
2022/12/25 08:19:28;;;;;;;13.13;3.85;;;9.80;99.90;;;;;;5063977;28;20199;-61
2022/12/25 08:21:54;;;;;;;10.40;3.40;;;9.80;99.90;;;;;;5061441;28;20425;-60
2022/12/25 08:24:19;;;;;;;16.63;3.33;;;9.90;99.90;;;;;;5059863;28;20039;-60
2022/12/25 08:26:46;;;;;;;14.63;3.30;;;9.90;99.90;;;;;;5061155;28;20033;-60
2022/12/25 08:29:12;;;;;;;10.93;3.28;;;9.90;99.90;;;;;;5060217;28;20144;-59
2022/12/25 08:31:37;;;;;;;9.65;3.58;;;9.90;99.90;;;;;;5063097;28;20545;-60
2022/12/25 08:34:03;;;;;;;13.05;4.03;;;10.00;99.90;;;;;;5057132;28;20039;-60
2022/12/25 08:36:29;;;;;;;12.30;3.40;;;9.90;99.90;;;;;;5058277;28;20560;-60
2022/12/25 08:38:55;;;;;;;10.73;3.40;;;9.90;99.90;;;;;;5057371;28;20044;-61
2022/12/25 08:41:21;;;;;;;8.80;3.33;;;9.90;99.90;;;;;;5055726;28;20040;-59
2022/12/25 08:43:47;;;;;;;10.77;3.95;;;10.00;99.90;;;;;;5058418;28;20029;-62
2022/12/25 08:46:13;;;;;;;9.70;4.07;;;10.00;99.90;;;;;;5063808;28;20125;-60
2022/12/25 08:48:41;;;;;;;10.05;3.72;;;10.00;99.90;;;;;;5039986;28;20033;-60
2022/12/25 08:51:13;;;;;;;12.60;3.78;;;10.00;99.90;;;;;;5051345;28;20520;-60
2022/12/25 08:53:43;;;;;;;12.20;3.80;;;10.00;99.90;;;;;;5055155;28;20037;-59
2022/12/25 08:56:10;;;;;;;15.75;4.55;;;10.00;99.90;;;;;;5059538;28;20036;-59
2022/12/25 08:58:36;;;;;;;13.70;3.72;;;10.00;99.90;;;;;;5061309;28;20044;-60
2022/12/25 09:01:02;;;;;;;10.40;4.20;;;10.00;99.90;;;;;;5061157;28;20108;-59
2022/12/25 09:03:30;;;;;;;14.32;4.03;;;9.90;99.90;;;;;;5057472;28;20044;-59
2022/12/25 09:06:08;;;;;;;13.10;4.40;;;10.00;99.90;;;;;;5066946;28;20667;-59
2022/12/25 09:08:34;;;;;;;11.70;4.60;;;10.10;99.90;;;;;;5061287;28;21502;-59
2022/12/25 09:11:05;;;;;;;11.70;4.25;;;10.00;99.90;;;;;;5056245;28;20035;-62
2022/12/25 09:13:30;;;;;;;12.55;4.30;;;10.00;99.90;;;;;;5056617;28;20717;-62
2022/12/25 09:15:56;;;;;;;11.80;4.35;;;10.10;99.90;;;;;;5061351;28;20033;-62
2022/12/25 09:18:22;;;;;;;17.15;5.53;;;10.10;99.90;;;;;;5057512;28;20037;-62
2022/12/25 09:21:00;;;;;;;13.65;6.03;;;10.20;99.90;;;;;;5059576;28;20460;-62
2022/12/25 09:23:26;;;;;;;10.88;4.47;;;10.10;99.90;;;;;;5076920;28;20052;-62
2022/12/25 09:25:52;;;;;;;14.10;5.32;;;10.00;99.90;;;;;;5062966;28;20028;-62
2022/12/25 09:28:17;;;;;;;13.85;5.25;;;10.00;99.90;;;;;;5059755;28;20844;-64
2022/12/25 09:30:43;;;;;;;11.65;4.85;;;9.90;99.90;;;;;;5065015;28;20611;-62
2022/12/25 09:33:08;;;;;;;13.18;5.43;;;9.90;99.90;;;;;;5060063;28;20030;-62
2022/12/25 09:35:34;;;;;;;14.35;6.28;;;9.90;99.90;;;;;;5065184;28;20102;-63
2022/12/25 09:38:00;;;;;;;14.88;5.85;;;9.90;99.90;;;;;;5062967;28;20036;-63
2022/12/25 09:40:29;;;;;;;14.20;5.95;;;10.00;99.90;;;;;;5064864;28;20661;-63
2022/12/25 09:42:55;;;;;;;15.25;6.07;;;10.10;99.90;;;;;;5067555;28;20032;-63
2022/12/25 09:45:36;;;;;;;16.08;5.93;;;10.10;99.90;;;;;;5060834;28;20628;-63
2022/12/25 09:48:03;;;;;;;19.75;5.95;;;10.10;99.90;;;;;;5061973;28;20487;-62
2022/12/25 09:50:31;;;;;;;14.27;6.35;;;10.20;99.90;;;;;;5060268;28;20158;-63
2022/12/25 09:53:16;;;;;;;15.05;5.72;;;10.20;99.90;;;;;;5058042;28;20040;-64
2022/12/25 09:56:11;;;;;;;17.52;6.25;;;10.20;99.90;;;;;;5059685;28;20029;-62
2022/12/25 09:58:37;;;;;;;14.77;5.95;;;10.20;99.90;;;;;;5052217;28;20399;-62
2022/12/25 10:01:19;;;;;;;14.35;6.57;;;10.10;99.90;;;;;;5056174;28;20099;-63
2022/12/25 10:04:03;;;;;;;14.27;6.00;;;10.10;99.90;;;;;;5058914;28;20033;-62
2022/12/25 10:06:56;;;;;;;18.30;7.50;;;10.10;99.90;;;;;;5063898;28;20652;-64
2022/12/25 10:09:37;;;;;;;13.95;6.68;;;10.10;99.90;;;;;;5059605;28;20510;-64
2022/12/25 10:12:05;;;;;;;12.80;7.22;;;10.10;99.90;;;;;;5065908;28;20040;-63
2022/12/25 10:14:43;;;;;;;16.77;7.53;;;10.00;99.90;;;;;;5053831;28;20547;-63
2022/12/25 10:17:21;;;;;;;12.63;7.60;;;10.10;99.90;;;;;;5073950;28;20029;-64
2022/12/25 10:19:52;;;;;;;16.15;7.57;;;10.20;99.90;;;;;;5063068;28;20045;-62
2022/12/25 10:22:50;;;;;;;18.75;7.28;;;10.30;99.90;;;;;;5067694;28;20067;-62
2022/12/25 10:25:22;;;;;;;16.30;8.85;;;10.20;99.90;;;;;;5053889;28;20047;-63
2022/12/25 10:28:13;;;;;;;16.00;9.43;;;10.20;99.90;;;;;;5069265;28;20056;-63
2022/12/25 10:30:42;;;;;;;20.33;10.00;;;10.20;99.90;;;;;;5054558;28;20094;-64
2022/12/25 10:33:11;;;;;;;19.85;10.05;;;10.30;99.90;;;;;;5074824;28;20032;-60
2022/12/25 10:35:37;;;;;;;23.33;8.38;;;10.30;99.90;;;;;;5069374;28;20360;-62
2022/12/25 10:38:14;;;;;;;15.02;9.73;;;10.30;99.90;;;;;;5074032;28;20040;-61
2022/12/25 10:41:07;;;;;;;16.52;8.70;;;10.40;99.90;;;;;;5071248;28;20036;-62
2022/12/25 10:43:43;;;;;;;20.73;8.85;;;10.40;99.90;;;;;;5062074;28;20037;-61
2022/12/25 10:46:11;;;;;;;14.90;8.55;;;10.40;99.90;;;;;;5068028;28;20046;-63
2022/12/25 10:48:43;;;;;;;15.40;8.90;;;10.40;99.90;;;;;;5066375;28;20039;-62
2022/12/25 10:51:09;;;;;;;16.05;8.88;;;10.40;99.90;;;;;;5068037;28;20027;-62
2022/12/25 10:53:42;;;;;;;15.13;9.80;;;10.40;99.90;;;;;;5066856;28;20037;-62
2022/12/25 10:56:17;;;;;;;22.95;9.68;;;10.50;99.90;;;;;;5062294;28;20555;-62
2022/12/25 10:58:44;;;;;;;11.20;8.15;;;10.40;99.90;;;;;;5056836;28;20755;-62
2022/12/25 11:01:10;;;;;;;15.45;8.60;;;10.30;99.90;;;;;;5067809;28;20064;-62
2022/12/25 11:03:43;;;;;;;18.25;8.75;;;10.30;99.90;;;;;;5065538;28;20028;-62
2022/12/25 11:06:27;;;;;;;20.88;8.88;;;10.30;99.90;;;;;;5063491;28;20093;-62
2022/12/25 11:08:58;;;;;;;11.85;8.30;;;10.30;99.90;;;;;;5059445;28;20028;-63
2022/12/25 11:11:25;;;;;;;15.80;9.15;;;10.30;99.90;;;;;;5063589;28;20535;-61
2022/12/25 11:13:53;;;;;;;15.65;8.70;;;10.30;99.90;;;;;;5061860;28;20380;-62
2022/12/25 11:16:34;;;;;;;13.77;8.75;;;10.30;99.90;;;;;;5068011;28;20032;-62
2022/12/25 11:18:59;;;;;;;14.82;9.40;;;10.20;99.90;;;;;;5067824;28;20044;-62
2022/12/25 11:21:27;;;;;;;17.15;8.90;;;10.20;99.90;;;;;;5065703;28;20357;-62
2022/12/25 11:24:01;;;;;;;17.50;9.63;;;10.30;99.90;;;;;;5070751;28;20029;-62
2022/12/25 11:26:28;;;;;;;14.20;8.82;;;10.40;99.90;;;;;;5069186;28;20040;-61
2022/12/25 11:28:55;;;;;;;15.27;9.27;;;10.50;99.90;;;;;;5068069;28;20194;-61
2022/12/25 11:31:31;;;;;;;16.40;10.23;;;10.50;99.90;;;;;;5067063;28;20040;-61
2022/12/25 11:34:04;;;;;;;17.00;9.95;;;10.50;99.90;;;;;;5062764;28;20158;-61
2022/12/25 11:36:38;;;;;;;;;;;10.60;99.90;;;;;;5063022;28;20093;-61
2022/12/25 11:39:28;;;;;;;16.40;9.88;;;10.50;99.90;;;;;;5068744;28;20295;-62
2022/12/25 11:42:13;;;;;;;27.65;13.23;;;10.50;99.90;;;;;;5065662;28;20473;-62
2022/12/25 11:45:12;;;;;;;23.98;12.85;;;10.40;99.90;;;;;;5068006;28;20387;-62
2022/12/25 11:47:45;;;;;;;17.08;11.57;;;10.50;99.90;;;;;;5063754;28;20036;-62
2022/12/25 11:50:35;;;;;;;14.63;10.38;;;10.40;99.90;;;;;;5063701;28;20412;-62
2022/12/25 11:53:04;;;;;;;16.00;10.48;;;10.40;99.90;;;;;;5061966;28;20032;-62
2022/12/25 11:55:41;;;;;;;19.80;10.38;;;10.40;99.90;;;;;;5064684;28;20035;-62
2022/12/25 11:58:25;;;;;;;18.58;10.40;;;10.30;99.90;;;;;;5070845;28;20171;-62
2022/12/25 12:00:55;;;;;;;13.82;9.60;;;10.40;99.90;;;;;;5061982;28;20040;-62
2022/12/25 12:03:27;;;;;;;16.10;10.65;;;10.40;99.90;;;;;;5061962;28;20089;-62
2022/12/25 12:06:05;;;;;;;17.27;10.30;;;10.50;99.90;;;;;;5069730;28;20443;-62
2022/12/25 12:08:34;;;;;;;16.23;10.40;;;10.50;99.90;;;;;;5067746;28;20036;-62
2022/12/25 12:11:15;;;;;;;16.05;10.35;;;10.50;99.90;;;;;;5065893;28;20044;-62
2022/12/25 12:14:04;;;;;;;16.23;10.27;;;10.50;99.90;;;;;;5063735;28;20068;-63
2022/12/25 12:16:30;;;;;;;17.77;11.02;;;10.40;99.90;;;;;;5064509;28;20128;-63
2022/12/25 12:18:56;;;;;;;16.38;10.57;;;10.40;99.90;;;;;;5066123;28;20671;-62
2022/12/25 12:21:29;;;;;;;17.13;10.90;;;10.40;99.90;;;;;;5058347;28;20043;-64
2022/12/25 12:24:17;;;;;;;15.30;10.93;;;10.40;99.90;;;;;;5064300;28;20428;-64
2022/12/25 12:26:45;;;;;;;14.90;10.30;;;10.40;99.90;;;;;;5063831;28;20560;-64
2022/12/25 12:29:27;;;;;;;15.23;10.73;;;10.40;99.90;;;;;;5067260;28;20044;-63
2022/12/25 12:32:01;;;;;;;17.25;11.48;;;10.40;99.90;;;;;;5065083;28;20146;-64
2022/12/25 12:34:39;;;;;;;14.85;10.65;;;10.40;99.90;;;;;;5061446;28;20114;-63
2022/12/25 12:37:12;;;;;;;17.45;11.60;;;10.40;99.90;;;;;;5055899;28;20053;-62
2022/12/25 12:39:40;;;;;;;14.77;10.32;;;10.50;99.90;;;;;;5055837;28;20059;-63
2022/12/25 12:42:17;;;;;;;15.27;10.82;;;10.50;99.90;;;;;;5067135;28;20438;-63
2022/12/25 12:44:44;;;;;;;14.95;10.90;;;10.50;99.90;;;;;;5058123;28;20484;-63
2022/12/25 12:47:27;;;;;;;15.55;10.93;;;10.50;99.90;;;;;;5061828;28;20036;-65
2022/12/25 12:50:00;;;;;;;16.33;10.82;;;10.50;99.90;;;;;;5061503;28;20037;-63
2022/12/25 12:52:40;;;;;;;15.75;10.63;;;10.60;99.90;;;;;;5057818;28;20435;-63
2022/12/25 12:55:12;;;;;;;16.10;10.30;;;10.60;99.90;;;;;;5060591;28;20045;-64
2022/12/25 12:57:38;;;;;;;20.90;15.60;;;10.50;99.90;;;;;;5065349;28;20029;-64
2022/12/25 13:00:16;;;;;;;20.15;13.32;;;10.60;99.90;;;;;;5059735;28;20120;-64
2022/12/25 13:03:19;;;;;;;18.02;12.73;;;10.60;99.90;;;;;;5058309;28;20033;-63
2022/12/25 13:05:53;;;;;;;22.58;14.93;;;10.70;99.90;;;;;;5060964;28;20048;-64
2022/12/25 13:08:33;;;;;;;16.00;11.40;;;10.60;99.90;;;;;;5055199;28;20056;-64
2022/12/25 13:11:09;;;;;;;14.60;10.57;;;10.60;99.90;;;;;;5055662;28;20025;-62
2022/12/25 13:13:38;;;;;;;15.98;10.73;;;10.60;99.90;;;;;;5060004;28;20334;-63
2022/12/25 13:16:05;;;;;;;17.70;10.90;;;10.50;99.90;;;;;;5059046;28;20035;-62
2022/12/25 13:18:32;;;;;;;14.55;9.88;;;10.50;99.90;;;;;;5050697;28;20032;-62
2022/12/25 13:21:02;;;;;;;15.20;9.45;;;10.60;99.90;;;;;;5064066;28;20033;-63
2022/12/25 13:23:36;;;;;;;14.57;10.40;;;10.50;99.90;;;;;;5055562;28;20040;-62
2022/12/25 13:26:10;;;;;;;18.30;12.60;;;10.60;99.90;;;;;;5053621;28;20025;-62
2022/12/25 13:28:36;;;;;;;16.27;11.27;;;10.70;99.90;;;;;;5055471;28;20474;-63
2022/12/25 13:31:19;;;;;;;15.25;10.95;;;10.70;99.90;;;;;;5060187;28;20024;-63
2022/12/25 13:34:24;;;;;;;16.05;10.75;;;10.60;99.90;;;;;;5055852;28;20025;-63
2022/12/25 13:36:50;;;;;;;15.43;10.75;;;10.50;99.90;;;;;;5053783;28;20508;-63
2022/12/25 13:39:17;;;;;;;16.10;10.15;;;10.50;99.90;;;;;;5063246;28;20151;-62
2022/12/25 13:42:08;;;;;;;16.33;11.18;;;10.50;99.90;;;;;;5059891;28;20399;-62
2022/12/25 13:44:39;;;;;;;12.10;9.45;;;10.50;99.90;;;;;;5053137;28;20397;-63
2022/12/25 13:47:20;;;;;;;14.73;10.18;;;10.50;99.90;;;;;;5064687;28;20044;-63
2022/12/25 13:49:47;;;;;;;16.25;10.02;;;10.50;99.90;;;;;;5054832;28;20396;-62
2022/12/25 13:52:23;;;;;;;14.90;9.95;;;10.50;99.90;;;;;;5055921;28;20052;-63
2022/12/25 13:54:56;;;;;;;16.45;10.98;;;10.50;99.90;;;;;;5053010;28;20063;-62
2022/12/25 13:57:23;;;;;;;;;;;10.50;99.90;;;;;;5060774;28;20064;-62
2022/12/25 13:59:48;;;;;;;14.57;10.00;;;10.50;99.90;;;;;;5054675;28;19943;-61
2022/12/25 14:02:22;;;;;;;16.05;10.73;;;10.50;99.90;;;;;;5053979;28;20075;-64
2022/12/25 14:04:48;;;;;;;16.15;10.30;;;10.50;99.90;;;;;;5062916;28;20037;-62
2022/12/25 14:07:20;;;;;;;15.95;11.02;;;10.60;99.90;;;;;;5061589;28;20877;-62
2022/12/25 14:09:48;;;;;;;14.07;8.00;;;10.50;99.90;;;;;;5059661;28;20545;-63
2022/12/25 14:12:14;;;;;;;14.18;10.05;;;10.50;99.90;;;;;;5061731;28;20036;-63
2022/12/25 14:14:41;;;;;;;17.13;10.30;;;10.50;99.90;;;;;;5061424;28;20068;-62
2022/12/25 14:17:10;;;;;;;17.25;11.50;;;10.50;99.90;;;;;;5060850;28;20041;-62
2022/12/25 14:19:35;;;;;;;18.15;10.80;;;10.50;99.90;;;;;;5058798;28;20059;-62
2022/12/25 14:22:11;;;;;;;18.85;10.57;;;10.70;99.90;;;;;;5063032;28;20513;-62
2022/12/25 14:24:38;;;;;;;23.52;15.13;;;10.60;99.90;;;;;;5064487;28;20033;-60
2022/12/25 14:27:18;;;;;;;28.88;18.08;;;10.70;99.90;;;;;;5058073;28;20119;-62
2022/12/25 14:29:45;;;;;;;23.02;16.08;;;10.70;99.90;;;;;;5060663;28;20579;-61
2022/12/25 14:32:20;;;;;;;19.33;11.88;;;10.60;99.90;;;;;;5060933;28;20124;-63
2022/12/25 14:34:49;;;;;;;17.73;11.23;;;10.70;99.90;;;;;;5062280;28;20808;-62
2022/12/25 14:37:22;;;;;;;21.23;12.55;;;10.70;99.90;;;;;;5063506;28;20064;-62
2022/12/25 14:39:59;;;;;;;16.75;11.75;;;10.90;99.90;;;;;;5056162;28;20389;-64